createdAt,value
2024-05-09T00:00:18.400Z,7.6
2024-05-09T00:01:31.534Z,7.6
2024-05-09T00:02:33.480Z,7.6
2024-05-09T00:03:35.522Z,7.6
2024-05-09T00:04:37.591Z,7.6
2024-05-09T00:05:39.575Z,7.6
2024-05-09T00:06:41.468Z,7.6
2024-05-09T00:07:43.894Z,7.7
2024-05-09T00:08:45.509Z,7.7
2024-05-09T00:09:47.493Z,7.7
2024-05-09T00:10:49.493Z,7.7
2024-05-09T00:11:51.672Z,7.7
2024-05-09T00:12:53.461Z,7.8
2024-05-09T00:13:55.519Z,7.7
2024-05-09T00:14:57.461Z,7.7
2024-05-09T00:15:59.495Z,7.6
2024-05-09T00:17:02.000Z,7.6
2024-05-09T00:18:03.854Z,7.6
2024-05-09T00:19:06.060Z,7.6
2024-05-09T00:20:13.944Z,7.5
2024-05-09T00:21:28.239Z,7.5
2024-05-09T00:22:30.225Z,7.5
2024-05-09T00:23:32.273Z,7.5
2024-05-09T00:24:34.224Z,7.5
2024-05-09T00:25:36.252Z,7.5
2024-05-09T00:26:38.298Z,7.5
2024-05-09T00:27:40.410Z,7.5
2024-05-09T00:28:42.254Z,7.5
2024-05-09T00:29:44.527Z,7.5
2024-05-09T00:30:46.225Z,7.6
2024-05-09T00:31:48.754Z,7.6
2024-05-09T00:32:50.856Z,7.6
2024-05-09T00:33:53.098Z,7.6
2024-05-09T00:34:54.692Z,7.6
2024-05-09T00:35:56.682Z,7.6
2024-05-09T00:36:58.702Z,7.6
2024-05-09T00:38:01.210Z,7.7
2024-05-09T00:39:02.679Z,7.7
2024-05-09T00:41:12.220Z,7.5
2024-05-09T00:42:14.218Z,7.5
2024-05-09T00:43:16.197Z,7.5
2024-05-09T00:44:18.260Z,7.5
2024-05-09T00:45:20.187Z,7.4
2024-05-09T00:46:22.203Z,7.3
2024-05-09T00:47:24.362Z,7.3
2024-05-09T00:48:26.344Z,7.2
2024-05-09T00:49:28.289Z,7.2
2024-05-09T00:50:35.024Z,7.2
2024-05-09T00:51:38.601Z,7.2
2024-05-09T00:52:40.587Z,7.2
2024-05-09T00:53:42.636Z,7.2
2024-05-09T00:54:44.570Z,7.2
2024-05-09T00:55:46.638Z,7.2
2024-05-09T00:56:48.980Z,7.1
2024-05-09T00:57:51.030Z,7.2
2024-05-09T00:58:53.129Z,7.1
2024-05-09T00:59:58.407Z,7.1
2024-05-09T01:01:00.454Z,7.1
2024-05-09T01:02:02.499Z,7.1
2024-05-09T01:03:04.543Z,7.2
2024-05-09T01:04:06.511Z,7.2
2024-05-09T01:05:08.425Z,7.2
2024-05-09T01:06:10.413Z,7.2
2024-05-09T01:07:12.384Z,7.2
2024-05-09T01:08:14.602Z,7.2
2024-05-09T01:09:16.395Z,7.2
2024-05-09T01:10:23.986Z,7.2
2024-05-09T01:11:35.189Z,7.2
2024-05-09T01:12:37.139Z,7.3
2024-05-09T01:13:39.145Z,7.2
2024-05-09T01:14:41.151Z,7.2
2024-05-09T01:15:43.142Z,7.2
2024-05-09T01:16:45.140Z,7.2
2024-05-09T01:17:47.277Z,7
2024-05-09T01:18:49.680Z,7
2024-05-09T01:19:51.198Z,6.9
2024-05-09T01:20:53.833Z,6.8
2024-05-09T01:21:55.118Z,6.8
2024-05-09T01:22:57.176Z,6.8
2024-05-09T01:23:59.163Z,6.8
2024-05-09T01:25:01.152Z,6.8
2024-05-09T01:26:03.192Z,6.8
2024-05-09T01:27:05.119Z,6.7
2024-05-09T01:28:07.158Z,6.7
2024-05-09T01:29:09.192Z,6.7
2024-05-09T01:30:14.902Z,6.8
2024-05-09T01:31:28.027Z,6.8
2024-05-09T01:32:30.119Z,6.8
2024-05-09T01:33:32.478Z,6.8
2024-05-09T01:34:33.999Z,6.9
2024-05-09T01:35:36.039Z,6.9
2024-05-09T01:36:37.989Z,6.9
2024-05-09T01:37:39.996Z,6.9
2024-05-09T01:38:42.092Z,6.9
2024-05-09T01:39:44.003Z,6.9
2024-05-09T01:40:46.109Z,6.8
2024-05-09T01:41:47.986Z,6.8
2024-05-09T01:42:49.987Z,6.8
2024-05-09T01:43:52.090Z,6.7
2024-05-09T01:44:53.981Z,6.7
2024-05-09T01:45:55.979Z,6.7
2024-05-09T01:46:58.020Z,6.6
2024-05-09T01:48:00.298Z,6.6
2024-05-09T01:49:02.048Z,6.5
2024-05-09T01:50:05.139Z,6.5
2024-05-09T01:51:11.244Z,6.4
2024-05-09T01:52:13.041Z,6.4
2024-05-09T01:53:15.305Z,6.4
2024-05-09T01:54:17.034Z,6.4
2024-05-09T01:55:19.320Z,6.4
2024-05-09T01:56:21.148Z,6.4
2024-05-09T01:57:23.233Z,6.5
2024-05-09T01:58:25.061Z,6.5
2024-05-09T01:59:27.132Z,6.5
2024-05-09T02:00:33.316Z,6.6
2024-05-09T02:01:54.968Z,6.6
2024-05-09T02:02:58.595Z,6.6
2024-05-09T02:04:00.641Z,6.6
2024-05-09T02:05:02.586Z,6.6
2024-05-09T02:06:04.664Z,6.5
2024-05-09T02:07:06.591Z,6.4
2024-05-09T02:08:08.606Z,6.4
2024-05-09T02:09:10.529Z,6.4
2024-05-09T02:10:16.477Z,6.4
2024-05-09T02:11:30.694Z,6.4
2024-05-09T02:12:32.872Z,6.4
2024-05-09T02:13:34.640Z,6.3
2024-05-09T02:14:36.668Z,6.3
2024-05-09T02:15:38.659Z,6.3
2024-05-09T02:16:40.656Z,6.3
2024-05-09T02:17:42.769Z,6.2
2024-05-09T02:18:44.742Z,6.2
2024-05-09T02:19:46.647Z,6.2
2024-05-09T02:20:48.660Z,6.3
2024-05-09T02:21:50.619Z,6.3
2024-05-09T02:22:52.642Z,6.3
2024-05-09T02:23:54.615Z,6.3
2024-05-09T02:24:56.639Z,6.3
2024-05-09T02:25:58.680Z,6.3
2024-05-09T02:27:00.644Z,6.3
2024-05-09T02:28:02.651Z,6.3
2024-05-09T02:29:04.617Z,6.3
2024-05-09T02:30:12.206Z,6.3
2024-05-09T02:31:30.877Z,6.3
2024-05-09T02:32:32.988Z,6.2
2024-05-09T02:33:35.232Z,6.2
2024-05-09T02:34:36.885Z,6.1
2024-05-09T02:35:38.947Z,6.1
2024-05-09T02:36:40.866Z,6.1
2024-05-09T02:37:42.882Z,6
2024-05-09T02:38:44.907Z,6.1
2024-05-09T02:39:46.909Z,6
2024-05-09T02:40:48.917Z,6
2024-05-09T02:41:50.865Z,6
2024-05-09T02:42:52.948Z,6
2024-05-09T02:43:54.920Z,5.9
2024-05-09T02:44:56.889Z,5.9
2024-05-09T02:45:58.858Z,5.9
2024-05-09T02:47:00.871Z,5.9
2024-05-09T02:48:03.150Z,5.8
2024-05-09T02:49:04.909Z,5.8
2024-05-09T02:50:08.061Z,5.8
2024-05-09T02:51:11.353Z,5.8
2024-05-09T02:52:13.153Z,5.8
2024-05-09T02:53:15.198Z,5.8
2024-05-09T02:54:17.166Z,5.8
2024-05-09T02:55:19.138Z,5.8
2024-05-09T02:56:21.270Z,5.8
2024-05-09T02:57:23.138Z,5.8
2024-05-09T02:58:25.185Z,5.8
2024-05-09T02:59:27.192Z,5.9
2024-05-09T03:00:34.527Z,5.9
2024-05-09T03:01:42.914Z,5.9
2024-05-09T03:02:44.843Z,5.9
2024-05-09T03:03:46.971Z,5.9
2024-05-09T03:04:48.849Z,5.9
2024-05-09T03:05:50.785Z,5.9
2024-05-09T03:06:52.743Z,6
2024-05-09T03:07:54.841Z,6
2024-05-09T03:08:56.745Z,6
2024-05-09T03:09:58.746Z,6
2024-05-09T03:11:00.795Z,5.9
2024-05-09T03:12:02.803Z,5.9
2024-05-09T03:13:04.775Z,5.9
2024-05-09T03:14:06.805Z,5.8
2024-05-09T03:15:08.735Z,5.8
2024-05-09T03:16:10.735Z,5.8
2024-05-09T03:17:12.778Z,5.7
2024-05-09T03:18:14.807Z,5.7
2024-05-09T03:19:16.760Z,5.7
2024-05-09T03:20:20.827Z,5.7
2024-05-09T03:21:33.677Z,5.6
2024-05-09T03:22:35.704Z,5.6
2024-05-09T03:23:37.680Z,5.6
2024-05-09T03:24:39.679Z,5.6
2024-05-09T03:25:41.672Z,5.6
2024-05-09T03:26:43.695Z,5.6
2024-05-09T03:27:45.667Z,5.6
2024-05-09T03:28:47.693Z,5.6
2024-05-09T03:29:49.685Z,5.5
2024-05-09T03:30:51.688Z,5.6
2024-05-09T03:31:53.760Z,5.6
2024-05-09T03:32:55.772Z,5.5
2024-05-09T03:33:57.762Z,5.5
2024-05-09T03:34:59.685Z,5.5
2024-05-09T03:36:01.689Z,5.5
2024-05-09T03:37:03.656Z,5.5
2024-05-09T03:38:05.715Z,5.5
2024-05-09T03:39:07.657Z,5.5
2024-05-09T03:40:14.474Z,5.4
2024-05-09T03:41:24.292Z,5.3
2024-05-09T03:42:26.200Z,5.3
2024-05-09T03:43:28.200Z,5.3
2024-05-09T03:44:30.225Z,5.3
2024-05-09T03:45:32.242Z,5.3
2024-05-09T03:46:34.198Z,5.3
2024-05-09T03:47:36.306Z,5.3
2024-05-09T03:48:38.330Z,5.3
2024-05-09T03:49:40.241Z,5.3
2024-05-09T03:50:42.375Z,5.3
2024-05-09T03:51:44.187Z,5.3
2024-05-09T03:52:46.257Z,5.3
2024-05-09T03:53:48.195Z,5.3
2024-05-09T03:54:50.211Z,5.3
2024-05-09T03:55:52.227Z,5.2
2024-05-09T03:56:54.179Z,5.2
2024-05-09T03:57:56.177Z,5.1
2024-05-09T03:58:58.197Z,5.1
2024-05-09T04:00:00.218Z,5
2024-05-09T04:01:02.196Z,5.1
2024-05-09T04:02:04.261Z,5.1
2024-05-09T04:03:07.252Z,5.1
2024-05-09T04:04:12.830Z,5
2024-05-09T04:05:14.784Z,5.1
2024-05-09T04:06:16.776Z,5
2024-05-09T04:07:18.774Z,5
2024-05-09T04:08:20.817Z,5
2024-05-09T04:09:22.802Z,5
2024-05-09T04:10:28.077Z,5
2024-05-09T04:11:35.533Z,5
2024-05-09T04:12:37.472Z,5
2024-05-09T04:13:39.480Z,5
2024-05-09T04:14:41.475Z,5
2024-05-09T04:15:43.451Z,5
2024-05-09T04:16:45.561Z,5
2024-05-09T04:17:47.646Z,5
2024-05-09T04:18:49.622Z,5.1
2024-05-09T04:19:51.477Z,5.1
2024-05-09T04:20:53.505Z,5.1
2024-05-09T04:21:55.455Z,5.1
2024-05-09T04:22:57.485Z,5.1
2024-05-09T04:23:59.441Z,5.1
2024-05-09T04:25:01.448Z,5.1
2024-05-09T04:26:03.466Z,5.1
2024-05-09T04:27:05.476Z,5.1
2024-05-09T04:28:07.465Z,5.1
2024-05-09T04:29:09.486Z,5
2024-05-09T04:30:15.586Z,5
2024-05-09T04:31:36.954Z,5
2024-05-09T04:32:39.055Z,5
2024-05-09T04:33:41.021Z,5
2024-05-09T04:34:42.939Z,5
2024-05-09T04:35:45.265Z,5
2024-05-09T04:36:46.954Z,5
2024-05-09T04:37:48.955Z,5
2024-05-09T04:38:50.918Z,5
2024-05-09T04:39:52.931Z,5
2024-05-09T04:40:55.010Z,5
2024-05-09T04:41:56.947Z,5
2024-05-09T04:42:58.919Z,5
2024-05-09T04:44:00.938Z,5
2024-05-09T04:45:02.942Z,5
2024-05-09T04:46:04.938Z,5
2024-05-09T04:47:06.974Z,5
2024-05-09T04:48:09.107Z,5
2024-05-09T04:49:10.955Z,5
2024-05-09T04:50:17.676Z,5
2024-05-09T04:51:34.200Z,5
2024-05-09T04:52:36.200Z,5.1
2024-05-09T04:53:38.304Z,5.1
2024-05-09T04:54:40.202Z,5.1
2024-05-09T04:55:42.238Z,5.1
2024-05-09T04:56:44.261Z,5.2
2024-05-09T04:57:46.192Z,5.2
2024-05-09T04:58:48.680Z,5.3
2024-05-09T04:59:50.669Z,5.3
2024-05-09T05:00:52.249Z,5.3
2024-05-09T05:01:54.288Z,5.3
2024-05-09T05:02:56.237Z,5.3
2024-05-09T05:03:58.362Z,5.2
2024-05-09T05:05:00.444Z,5.2
2024-05-09T05:06:02.289Z,5.2
2024-05-09T05:07:04.183Z,5.2
2024-05-09T05:08:06.219Z,5.2
2024-05-09T05:09:08.213Z,5.3
2024-05-09T05:10:14.740Z,5.3
2024-05-09T05:11:26.167Z,5.4
2024-05-09T05:12:28.272Z,5.5
2024-05-09T05:13:30.047Z,5.5
2024-05-09T05:14:32.121Z,5.6
2024-05-09T05:15:34.042Z,5.6
2024-05-09T05:16:36.040Z,5.7
2024-05-09T05:17:38.196Z,5.7
2024-05-09T05:18:40.078Z,5.8
2024-05-09T05:19:42.701Z,5.8
2024-05-09T05:20:44.524Z,5.9
2024-05-09T05:21:46.391Z,5.9
2024-05-09T05:22:48.219Z,6
2024-05-09T05:23:50.082Z,6
2024-05-09T05:24:52.043Z,6.1
2024-05-09T05:25:54.485Z,6.1
2024-05-09T05:26:56.030Z,6.1
2024-05-09T05:27:58.065Z,6.2
2024-05-09T05:29:00.074Z,6.2
2024-05-09T05:30:02.059Z,6.2
2024-05-09T05:31:04.025Z,6.3
2024-05-09T05:32:06.054Z,6.4
2024-05-09T05:33:08.104Z,6.4
2024-05-09T05:34:10.031Z,6.4
2024-05-09T05:35:12.062Z,6.4
2024-05-09T05:36:14.036Z,6.5
2024-05-09T05:37:16.043Z,6.5
2024-05-09T05:38:18.192Z,6.6
2024-05-09T05:39:20.021Z,6.6
2024-05-09T05:40:27.819Z,6.7
2024-05-09T05:41:38.283Z,6.7
2024-05-09T05:42:40.236Z,6.8
2024-05-09T05:43:42.233Z,6.9
2024-05-09T05:44:44.243Z,6.9
2024-05-09T05:45:46.247Z,7
2024-05-09T05:46:48.253Z,7
2024-05-09T05:47:50.438Z,7.2
2024-05-09T05:48:52.300Z,7.2
2024-05-09T05:49:54.239Z,7.3
2024-05-09T05:50:56.805Z,7.4
2024-05-09T05:51:58.487Z,7.5
2024-05-09T05:53:00.582Z,7.5
2024-05-09T05:54:02.475Z,7.6
2024-05-09T05:55:04.478Z,7.7
2024-05-09T05:56:06.545Z,7.8
2024-05-09T05:57:08.474Z,7.9
2024-05-09T05:58:10.506Z,8
2024-05-09T05:59:14.747Z,8
2024-05-09T06:00:21.951Z,8.1
2024-05-09T06:01:38.289Z,8.2
2024-05-09T06:02:40.326Z,8.3
2024-05-09T06:03:42.400Z,8.4
2024-05-09T06:04:44.331Z,8.4
2024-05-09T06:05:46.284Z,8.5
2024-05-09T06:06:48.180Z,8.6
2024-05-09T06:07:50.209Z,8.6
2024-05-09T06:08:52.171Z,8.8
2024-05-09T06:09:54.186Z,8.9
2024-05-09T06:10:56.230Z,8.9
2024-05-09T06:11:58.243Z,9
2024-05-09T06:13:00.159Z,9.2
2024-05-09T06:14:02.247Z,9.2
2024-05-09T06:15:04.160Z,9.4
2024-05-09T06:16:06.170Z,9.5
2024-05-09T06:17:08.173Z,9.6
2024-05-09T06:18:10.846Z,9.7
2024-05-09T06:19:13.571Z,9.8
2024-05-09T06:20:20.061Z,10
2024-05-09T06:21:35.648Z,10.1
2024-05-09T06:22:37.660Z,10.2
2024-05-09T06:23:39.775Z,10.3
2024-05-09T06:24:41.649Z,10.5
2024-05-09T06:25:43.663Z,10.6
2024-05-09T06:26:45.641Z,10.7
2024-05-09T06:27:47.670Z,10.9
2024-05-09T06:28:49.679Z,11
2024-05-09T06:29:51.639Z,11.1
2024-05-09T06:30:53.653Z,11.3
2024-05-09T06:31:57.086Z,11.5
2024-05-09T06:33:00.903Z,11.6
2024-05-09T06:34:02.908Z,11.7
2024-05-09T06:35:04.762Z,11.9
2024-05-09T06:36:06.707Z,12
2024-05-09T06:37:09.068Z,12.2
2024-05-09T06:38:11.270Z,12.3
2024-05-09T06:39:13.043Z,12.5
2024-05-09T06:40:17.749Z,12.7
2024-05-09T06:41:34.443Z,12.8
2024-05-09T06:42:36.376Z,13
2024-05-09T06:43:38.349Z,13.1
2024-05-09T06:44:40.368Z,13.3
2024-05-09T06:45:43.033Z,13.5
2024-05-09T06:46:44.398Z,13.6
2024-05-09T06:47:46.445Z,13.7
2024-05-09T06:48:48.689Z,13.9
2024-05-09T06:49:50.546Z,14
2024-05-09T06:50:52.381Z,14.1
2024-05-09T06:51:54.347Z,14.3
2024-05-09T06:52:56.407Z,14.3
2024-05-09T06:53:58.350Z,14.4
2024-05-09T06:55:00.350Z,14.5
2024-05-09T06:56:02.393Z,14.6
2024-05-09T06:57:04.350Z,14.7
2024-05-09T06:58:06.510Z,14.8
2024-05-09T06:59:08.344Z,14.9
2024-05-09T07:00:12.752Z,15
2024-05-09T07:01:27.877Z,15
2024-05-09T07:02:29.860Z,15.2
2024-05-09T07:03:31.912Z,15.2
2024-05-09T07:04:33.930Z,15.3
2024-05-09T07:05:36.326Z,15.4
2024-05-09T07:06:37.840Z,15.5
2024-05-09T07:07:40.022Z,15.6
2024-05-09T07:08:42.074Z,15.6
2024-05-09T07:09:44.721Z,15.8
2024-05-09T07:10:46.458Z,15.8
2024-05-09T07:11:51.513Z,15.9
2024-05-09T07:12:53.462Z,16
2024-05-09T07:13:55.506Z,16
2024-05-09T07:14:57.477Z,16.1
2024-05-09T07:15:59.449Z,16.2
2024-05-09T07:17:01.514Z,16.2
2024-05-09T07:18:03.579Z,16.4
2024-05-09T07:19:05.693Z,16.4
2024-05-09T07:20:09.178Z,16.4
2024-05-09T07:21:27.483Z,16.5
2024-05-09T07:22:29.463Z,16.6
2024-05-09T07:23:31.487Z,16.7
2024-05-09T07:24:33.465Z,16.8
2024-05-09T07:25:35.480Z,16.8
2024-05-09T07:26:37.514Z,16.9
2024-05-09T07:27:39.460Z,16.9
2024-05-09T07:28:41.482Z,17
2024-05-09T07:29:43.508Z,17
2024-05-09T07:30:45.448Z,17
2024-05-09T07:31:47.466Z,17.1
2024-05-09T07:32:49.676Z,17.2
2024-05-09T07:33:51.510Z,17.2
2024-05-09T07:34:53.492Z,17.2
2024-05-09T07:35:55.444Z,17.3
2024-05-09T07:36:57.443Z,17.4
2024-05-09T07:37:59.537Z,17.4
2024-05-09T07:39:01.450Z,17.4
2024-05-09T07:40:05.683Z,17.5
2024-05-09T07:41:08.097Z,17.5
2024-05-09T07:42:10.068Z,17.5
2024-05-09T07:43:15.179Z,17.5
2024-05-09T07:44:15.655Z,17.5
2024-05-09T07:47:14.582Z,17.6
2024-05-09T07:52:49.414Z,17.8
2024-05-09T07:54:44.663Z,17.9
2024-05-09T07:55:46.649Z,18
2024-05-09T07:56:48.689Z,18
2024-05-09T07:57:50.604Z,18
2024-05-09T07:58:52.796Z,18
2024-05-09T07:59:54.583Z,18
2024-05-09T08:00:56.648Z,18
2024-05-09T08:01:58.651Z,18
2024-05-09T08:03:00.605Z,18
2024-05-09T08:04:02.645Z,18.1
2024-05-09T08:05:04.644Z,18.2
2024-05-09T08:06:06.752Z,18.3
2024-05-09T08:07:08.656Z,18.3
2024-05-09T08:08:11.135Z,18.4
2024-05-09T08:09:16.703Z,18.5
2024-05-09T08:10:24.848Z,18.5
2024-05-09T08:11:29.759Z,18.6
2024-05-09T08:12:31.823Z,18.6
2024-05-09T08:13:33.757Z,18.7
2024-05-09T08:14:35.748Z,18.7
2024-05-09T08:15:37.818Z,18.8
2024-05-09T08:16:39.747Z,18.7
2024-05-09T08:17:41.961Z,18.7
2024-05-09T08:18:43.822Z,18.8
2024-05-09T08:19:46.218Z,18.8
2024-05-09T08:20:47.750Z,18.9
2024-05-09T08:21:49.806Z,18.8
2024-05-09T08:22:52.220Z,18.8
2024-05-09T08:23:53.749Z,18.9
2024-05-09T08:24:55.896Z,18.9
2024-05-09T08:25:58.044Z,18.9
2024-05-09T08:26:59.735Z,19
2024-05-09T08:28:01.885Z,18.9
2024-05-09T08:29:04.221Z,19
2024-05-09T08:30:07.964Z,19
2024-05-09T08:31:21.833Z,19.1
2024-05-09T08:32:23.714Z,19.1
2024-05-09T08:33:26.114Z,19.2
2024-05-09T08:34:28.420Z,19.3
2024-05-09T08:35:32.269Z,19.4
2024-05-09T08:36:34.078Z,19.4
2024-05-09T08:37:37.902Z,19.4
2024-05-09T08:38:41.346Z,19.4
2024-05-09T08:39:43.328Z,19.4
2024-05-09T08:40:45.454Z,19.4
2024-05-09T08:41:48.836Z,19.4
2024-05-09T08:42:52.636Z,19.5
2024-05-09T08:43:54.452Z,19.5
2024-05-09T08:44:56.571Z,19.6
2024-05-09T08:45:58.950Z,19.5
2024-05-09T08:47:00.407Z,19.5
2024-05-09T08:48:02.495Z,19.5
2024-05-09T08:49:04.605Z,19.6
2024-05-09T08:50:08.622Z,19.6
2024-05-09T08:51:24.746Z,19.5
2024-05-09T08:52:26.728Z,19.5
2024-05-09T08:53:29.248Z,19.6
2024-05-09T08:54:30.759Z,19.7
2024-05-09T08:55:32.696Z,19.7
2024-05-09T08:56:34.694Z,19.7
2024-05-09T08:57:36.824Z,19.8
2024-05-09T08:58:38.698Z,19.9
2024-05-09T08:59:41.182Z,19.9
2024-05-09T09:00:42.763Z,20
2024-05-09T09:01:44.848Z,20
2024-05-09T09:02:46.722Z,20.1
2024-05-09T09:03:49.086Z,20.1
2024-05-09T09:04:51.592Z,20.1
2024-05-09T09:05:53.104Z,20.3
2024-05-09T09:06:57.203Z,20.1
2024-05-09T09:08:00.661Z,20.2
2024-05-09T09:09:03.148Z,20.2
2024-05-09T09:10:05.722Z,20.3
2024-05-09T09:11:09.761Z,20.3
2024-05-09T09:12:11.382Z,20.4
2024-05-09T09:13:13.396Z,20.5
2024-05-09T09:14:15.455Z,20.6
2024-05-09T09:15:17.412Z,20.7
2024-05-09T09:16:20.100Z,20.8
2024-05-09T09:17:21.420Z,20.8
2024-05-09T09:18:23.526Z,20.9
2024-05-09T09:19:25.439Z,20.9
2024-05-09T09:20:29.654Z,20.8
2024-05-09T09:21:37.559Z,20.8
2024-05-09T09:22:39.515Z,20.6
2024-05-09T09:23:41.518Z,20.5
2024-05-09T09:24:43.524Z,20.5
2024-05-09T09:25:45.529Z,20.5
2024-05-09T09:26:47.499Z,20.6
2024-05-09T09:27:49.506Z,20.6
2024-05-09T09:28:51.496Z,20.6
2024-05-09T09:29:53.491Z,20.6
2024-05-09T09:30:55.545Z,20.7
2024-05-09T09:31:57.493Z,20.7
2024-05-09T09:32:59.523Z,20.8
2024-05-09T09:34:01.644Z,21
2024-05-09T09:35:03.571Z,21.1
2024-05-09T09:36:06.926Z,21.1
2024-05-09T09:37:11.778Z,21.1
2024-05-09T09:38:13.718Z,21.2
2024-05-09T09:39:15.707Z,21.4
2024-05-09T09:40:18.313Z,21.5
2024-05-09T09:41:22.391Z,21.5
2024-05-09T09:42:24.388Z,21.4
2024-05-09T09:43:26.463Z,21.1
2024-05-09T09:44:28.416Z,20.8
2024-05-09T09:45:30.512Z,20.5
2024-05-09T09:46:32.969Z,20.4
2024-05-09T09:47:34.432Z,20.3
2024-05-09T09:48:36.541Z,20.3
2024-05-09T09:49:38.473Z,20.3
2024-05-09T09:50:40.380Z,20.3
2024-05-09T09:51:42.808Z,20.3
2024-05-09T09:52:44.813Z,20.3
2024-05-09T09:53:46.408Z,20.3
2024-05-09T09:54:48.418Z,20.3
2024-05-09T09:55:50.378Z,20.3
2024-05-09T09:56:52.384Z,20.1
2024-05-09T09:57:54.407Z,20
2024-05-09T09:58:56.394Z,19.7
2024-05-09T09:59:58.371Z,19.5
2024-05-09T10:01:00.465Z,19.4
2024-05-09T10:02:02.761Z,19.2
2024-05-09T10:03:04.527Z,19
2024-05-09T10:04:06.418Z,18.9
2024-05-09T10:05:08.472Z,18.8
2024-05-09T10:06:10.606Z,18.7
2024-05-09T10:07:12.475Z,18.5
2024-05-09T10:08:14.417Z,18.4
2024-05-09T10:09:16.371Z,18.3
2024-05-09T10:10:22.830Z,18.2
2024-05-09T10:11:37.145Z,18.1
2024-05-09T10:12:49.577Z,18
2024-05-09T10:13:51.737Z,18
2024-05-09T10:14:53.530Z,18
2024-05-09T10:15:55.588Z,17.9
2024-05-09T10:16:57.558Z,17.8
2024-05-09T10:17:59.679Z,17.9
2024-05-09T10:19:01.600Z,17.8
2024-05-09T10:20:07.163Z,17.8
2024-05-09T10:21:21.669Z,17.8
2024-05-09T10:22:23.733Z,17.8
2024-05-09T10:23:25.884Z,17.7
2024-05-09T10:24:28.262Z,17.6
2024-05-09T10:25:32.081Z,17.6
2024-05-09T10:26:34.131Z,17.6
2024-05-09T10:27:36.058Z,17.7
2024-05-09T10:28:38.028Z,17.7
2024-05-09T10:29:40.068Z,17.8
2024-05-09T10:30:43.284Z,17.8
2024-05-09T10:31:45.778Z,17.8
2024-05-09T10:32:47.633Z,17.8
2024-05-09T10:33:50.584Z,17.8
2024-05-09T10:34:53.708Z,17.8
2024-05-09T10:35:55.709Z,17.8
2024-05-09T10:36:58.157Z,17.8
2024-05-09T10:37:59.681Z,17.9
2024-05-09T10:39:01.675Z,18
2024-05-09T10:40:07.092Z,18.1
2024-05-09T10:41:17.911Z,18.2
2024-05-09T10:42:19.892Z,18.2
2024-05-09T10:43:22.250Z,18.2
2024-05-09T10:44:23.916Z,18.3
2024-05-09T10:45:25.915Z,18.4
2024-05-09T10:46:27.909Z,18.5
2024-05-09T10:47:29.941Z,18.6
2024-05-09T10:48:31.947Z,18.8
2024-05-09T10:49:33.940Z,18.9
2024-05-09T10:50:35.987Z,19
2024-05-09T10:51:37.927Z,19
2024-05-09T10:52:39.882Z,19.1
2024-05-09T10:53:41.874Z,19.1
2024-05-09T10:54:43.924Z,19.1
2024-05-09T10:55:45.875Z,19.1
2024-05-09T10:56:47.874Z,19.2
2024-05-09T10:57:49.941Z,19.3
2024-05-09T10:58:51.900Z,19.5
2024-05-09T10:59:53.885Z,19.8
2024-05-09T11:00:56.015Z,20
2024-05-09T11:01:57.970Z,20.3
2024-05-09T11:02:59.901Z,20.5
2024-05-09T11:04:02.139Z,20.8
2024-05-09T11:05:04.007Z,21.1
2024-05-09T11:06:05.955Z,21.4
2024-05-09T11:07:07.909Z,21.7
2024-05-09T11:08:09.890Z,21.8
2024-05-09T11:09:12.268Z,22
2024-05-09T11:10:14.759Z,22.2
2024-05-09T11:11:27.756Z,22.5
2024-05-09T11:12:29.765Z,22.5
2024-05-09T11:13:32.092Z,22.6
2024-05-09T11:14:33.720Z,22.5
2024-05-09T11:15:35.737Z,22.3
2024-05-09T11:16:38.336Z,22.1
2024-05-09T11:17:39.870Z,21.9
2024-05-09T11:18:42.045Z,21.6
2024-05-09T11:19:43.765Z,21.4
2024-05-09T11:20:45.824Z,21.1
2024-05-09T11:21:47.779Z,20.9
2024-05-09T11:22:49.736Z,20.7
2024-05-09T11:23:51.738Z,20.6
2024-05-09T11:24:53.726Z,20.5
2024-05-09T11:25:55.743Z,20.3
2024-05-09T11:26:57.954Z,20.1
2024-05-09T11:27:59.729Z,20
2024-05-09T11:29:02.084Z,19.9
2024-05-09T11:30:04.444Z,19.9
2024-05-09T11:31:12.489Z,20
2024-05-09T11:32:14.735Z,19.9
2024-05-09T11:33:16.715Z,19.8
2024-05-09T11:34:18.696Z,19.7
2024-05-09T11:35:20.670Z,19.5
2024-05-09T11:36:22.698Z,19.4
2024-05-09T11:37:24.738Z,19.3
2024-05-09T11:38:26.661Z,19.1
2024-05-09T11:39:28.678Z,19
2024-05-09T11:40:33.941Z,18.9
2024-05-09T11:41:35.674Z,18.9
2024-05-09T11:42:37.544Z,18.9
2024-05-09T11:43:39.522Z,18.8
2024-05-09T11:44:41.513Z,18.8
2024-05-09T11:45:44.310Z,18.8
2024-05-09T11:46:45.513Z,18.9
2024-05-09T11:47:47.560Z,19
2024-05-09T11:48:49.664Z,19.1
2024-05-09T11:49:51.547Z,19.1
2024-05-09T11:50:53.512Z,19.2
2024-05-09T11:51:55.582Z,19.3
2024-05-09T11:52:57.494Z,19.3
2024-05-09T11:53:59.676Z,19.2
2024-05-09T11:55:01.550Z,19
2024-05-09T11:56:03.629Z,18.9
2024-05-09T11:57:05.486Z,18.8
2024-05-09T11:58:07.508Z,18.7
2024-05-09T11:59:09.495Z,18.7
2024-05-09T12:00:14.849Z,18.5
2024-05-09T12:01:29.680Z,18.4
2024-05-09T12:02:31.628Z,18.4
2024-05-09T12:03:33.685Z,18.3
2024-05-09T12:04:35.701Z,18.3
2024-05-09T12:05:37.690Z,18.3
2024-05-09T12:06:39.612Z,18.2
2024-05-09T12:07:41.611Z,18.2
2024-05-09T12:08:43.627Z,18.2
2024-05-09T12:09:45.621Z,18.1
2024-05-09T12:10:47.682Z,18
2024-05-09T12:11:49.653Z,17.9
2024-05-09T12:12:51.600Z,17.8
2024-05-09T12:13:53.589Z,17.7
2024-05-09T12:14:55.585Z,17.6
2024-05-09T12:15:57.601Z,17.6
2024-05-09T12:16:59.611Z,17.6
2024-05-09T12:18:03.437Z,17.5
2024-05-09T12:19:05.279Z,17.6
2024-05-09T12:20:11.287Z,17.6
2024-05-09T12:21:25.948Z,17.8
2024-05-09T12:22:27.874Z,17.8
2024-05-09T12:23:29.867Z,17.8
2024-05-09T12:24:31.877Z,17.9
2024-05-09T12:25:33.896Z,18.1
2024-05-09T12:26:35.849Z,18.4
2024-05-09T12:27:37.906Z,18.7
2024-05-09T12:28:39.842Z,19.1
2024-05-09T12:29:41.845Z,19.4
2024-05-09T12:30:43.854Z,19.7
2024-05-09T12:31:45.886Z,19.9
2024-05-09T12:32:47.986Z,20
2024-05-09T12:33:49.941Z,20.1
2024-05-09T12:34:51.845Z,20.3
2024-05-09T12:35:54.132Z,20.3
2024-05-09T12:36:55.883Z,20.5
2024-05-09T12:37:57.861Z,21
2024-05-09T12:38:59.844Z,21.4
2024-05-09T12:40:02.306Z,21.7
2024-05-09T12:41:07.215Z,21.9
2024-05-09T12:42:10.995Z,22.1
2024-05-09T12:43:26.370Z,22.3
2024-05-09T12:44:28.205Z,22.5
2024-05-09T12:45:30.246Z,22.5
2024-05-09T12:46:32.578Z,22.5
2024-05-09T12:47:34.315Z,22.5
2024-05-09T12:48:36.374Z,22.3
2024-05-09T12:49:38.311Z,22.1
2024-05-09T12:50:40.397Z,21.7
2024-05-09T12:51:42.839Z,21.5
2024-05-09T12:52:44.198Z,21.1
2024-05-09T12:53:46.208Z,20.8
2024-05-09T12:54:48.216Z,20.5
2024-05-09T12:55:53.962Z,20.3
2024-05-09T12:57:02.769Z,20.3
2024-05-09T12:58:04.807Z,20.2
2024-05-09T12:59:06.754Z,20.3
2024-05-09T13:00:14.159Z,20.3
2024-05-09T13:01:28.512Z,20.4
2024-05-09T13:02:30.566Z,20.5
2024-05-09T13:03:32.671Z,20.5
2024-05-09T13:04:34.621Z,20.5
2024-05-09T13:05:36.619Z,20.4
2024-05-09T13:06:38.485Z,20.3
2024-05-09T13:07:40.478Z,20.3
2024-05-09T13:08:42.732Z,20.3
2024-05-09T13:09:47.822Z,20.3
2024-05-09T13:10:49.064Z,20.2
2024-05-09T13:11:50.549Z,20
2024-05-09T13:12:52.555Z,19.8
2024-05-09T13:13:54.814Z,19.6
2024-05-09T13:14:56.903Z,19.5
2024-05-09T13:15:58.688Z,19.5
2024-05-09T13:17:00.600Z,19.6
2024-05-09T13:18:03.808Z,19.7
2024-05-09T13:19:05.289Z,20
2024-05-09T13:20:11.852Z,20.2
2024-05-09T13:21:27.059Z,20.5
2024-05-09T13:22:28.639Z,20.5
2024-05-09T13:23:30.658Z,20.6
2024-05-09T13:24:32.696Z,20.6
2024-05-09T13:25:35.070Z,20.5
2024-05-09T13:26:37.007Z,20.5
2024-05-09T13:27:38.783Z,20.5
2024-05-09T13:28:40.652Z,20.6
2024-05-09T13:29:44.184Z,20.6
2024-05-09T13:30:44.933Z,20.6
2024-05-09T13:31:46.940Z,20.6
2024-05-09T13:32:48.984Z,20.6
2024-05-09T13:33:51.160Z,20.6
2024-05-09T13:34:52.954Z,20.6
2024-05-09T13:35:54.915Z,20.5
2024-05-09T13:36:56.930Z,20.5
2024-05-09T13:37:58.975Z,20.5
2024-05-09T13:39:00.905Z,20.6
2024-05-09T13:40:04.282Z,20.5
2024-05-09T13:41:08.205Z,20.5
2024-05-09T13:42:10.007Z,20.4
2024-05-09T13:43:11.835Z,20.4
2024-05-09T13:44:18.057Z,20.4
2024-05-09T13:45:19.817Z,20.5
2024-05-09T13:46:21.462Z,20.5
2024-05-09T13:47:23.469Z,20.5
2024-05-09T13:48:26.000Z,20.6
2024-05-09T13:49:27.375Z,20.6
2024-05-09T13:50:32.794Z,20.8
2024-05-09T13:51:38.407Z,21
2024-05-09T13:52:40.023Z,21.3
2024-05-09T13:53:41.649Z,21.6
2024-05-09T13:54:43.918Z,22.1
2024-05-09T13:55:45.642Z,22.6
2024-05-09T13:56:47.633Z,23.2
2024-05-09T13:57:49.651Z,23.5
2024-05-09T13:58:51.628Z,23.9
2024-05-09T13:59:53.632Z,24.3
2024-05-09T14:00:55.888Z,24.7
2024-05-09T14:01:57.685Z,25
2024-05-09T14:02:59.694Z,25.3
2024-05-09T14:04:01.760Z,25.6
2024-05-09T14:05:04.134Z,25.9
2024-05-09T14:06:07.053Z,26.2
2024-05-09T14:07:12.382Z,26.4
2024-05-09T14:08:14.575Z,26.7
2024-05-09T14:09:16.358Z,26.8
2024-05-09T14:10:22.460Z,27
2024-05-09T14:11:31.985Z,27.2
2024-05-09T14:12:33.970Z,27.4
2024-05-09T14:13:36.122Z,27.5
2024-05-09T14:14:37.967Z,27.4
2024-05-09T14:15:40.467Z,27.5
2024-05-09T14:16:42.101Z,27.6
2024-05-09T14:17:43.971Z,27.7
2024-05-09T14:18:45.961Z,27.7
2024-05-09T14:19:49.239Z,27.4
2024-05-09T14:20:50.463Z,26.9
2024-05-09T14:21:52.621Z,26.5
2024-05-09T14:22:54.372Z,26.3
2024-05-09T14:23:57.038Z,26.2